Time;durP1;ratioP1;P1;durP2;ratioP2;P2;SDS_P1;SDS_P2;PMS_P1;PMS_P2;Temp;Humidity;BMP_temperature;BMP_pressure;BME280_temperature;BME280_humidity;BME280_pressure;Samples;Min_cycle;Max_cycle;Signal;HPM_P1;HPM_P2
2022/05/11 00:02:01;;;;;;;2.22;1.58;;;;;;;17.30;28.18;100332.97;10428298;28;20215;-91
2022/05/11 00:07:04;;;;;;;5.68;1.77;;;;;;;17.38;27.75;100315.19;10444470;28;20223;-90
2022/05/11 00:12:07;;;;;;;3.00;1.35;;;;;;;17.23;27.73;100307.94;10427502;28;20200;-89
2022/05/11 00:17:10;;;;;;;2.55;1.90;;;;;;;17.10;27.71;100304.75;10443628;28;20196;-89
2022/05/11 00:22:12;;;;;;;5.20;1.88;;;;;;;17.41;27.29;100299.94;10430814;28;20281;-88
2022/05/11 00:27:14;;;;;;;2.33;1.45;;;;;;;17.35;27.83;100290.13;10445900;28;20244;-90
2022/05/11 00:32:17;;;;;;;2.90;1.35;;;;;;;16.60;28.95;100298.63;10427000;28;20254;-87
2022/05/11 00:37:20;;;;;;;2.70;1.58;;;;;;;16.95;28.05;100283.13;10442116;28;20450;-88
2022/05/11 00:42:22;;;;;;;4.43;1.73;;;;;;;16.48;28.79;100296.25;10442727;28;20211;-87
2022/05/11 00:47:36;;;;;;;3.17;1.50;;;;;;;16.71;28.50;100276.34;10442859;28;20238;-89
2022/05/11 00:52:41;;;;;;;2.35;1.45;;;;;;;16.17;29.31;100282.91;10424666;28;20235;-90
2022/05/11 00:57:59;;;;;;;6.43;1.52;;;;;;;16.44;29.11;100269.56;10424001;28;20249;-91
2022/05/11 01:03:05;;;;;;;2.50;1.63;;;;;;;16.25;28.84;100250.84;10425596;28;20280;-89
2022/05/11 01:08:08;;;;;;;2.78;1.58;;;;;;;15.82;29.50;100249.44;10441485;28;20230;-91
2022/05/11 01:13:12;;;;;;;3.35;1.73;;;;;;;16.14;28.57;100238.59;10442042;28;20204;-92
2022/05/11 01:18:15;;;;;;;3.22;1.40;;;;;;;16.04;28.90;100248.91;10441325;28;20733;-89
2022/05/11 01:23:20;;;;;;;2.20;1.30;;;;;;;16.37;28.50;100249.53;10441041;28;20477;-90
2022/05/11 01:28:23;;;;;;;4.05;1.67;;;;;;;16.50;28.11;100242.03;10441419;28;20536;-89
2022/05/11 01:33:25;;;;;;;2.58;1.20;;;;;;;16.50;27.51;100233.41;10424767;28;20493;-91
2022/05/11 01:38:44;;;;;;;3.67;1.60;;;;;;;16.09;28.10;100223.88;10441432;28;20504;-88
2022/05/11 01:43:46;;;;;;;4.15;1.75;;;;;;;15.48;28.99;100218.47;10440749;28;20237;-89
2022/05/11 01:48:49;;;;;;;4.47;1.00;;;;;;;16.37;27.47;100197.78;10424054;28;20188;-92
2022/05/11 01:53:52;;;;;;;4.47;1.67;;;;;;;16.23;27.88;100187.22;10422073;28;20232;-89
2022/05/11 01:58:54;;;;;;;5.00;1.50;;;;;;;15.96;27.79;100189.03;10439056;28;20212;-87
2022/05/11 02:03:57;;;;;;;2.50;1.50;;;;;;;16.15;28.43;100184.81;10426972;28;20184;-87
2022/05/11 02:09:00;;;;;;;3.90;2.17;;;;;;;16.66;27.29;100184.78;10428724;28;20192;-91
2022/05/11 02:14:02;;;;;;;2.95;1.35;;;;;;;16.85;27.06;100176.81;10428593;28;20199;-86
2022/05/11 02:19:05;;;;;;;3.72;1.95;;;;;;;16.93;27.02;100167.66;10444037;28;20216;-87
2022/05/11 02:24:07;;;;;;;4.13;1.50;;;;;;;17.87;26.12;100168.13;10428399;28;20458;-89
2022/05/11 02:29:10;;;;;;;3.17;1.40;;;;;;;16.65;27.30;100163.06;10445187;28;20188;-90
2022/05/11 02:35:12;;;;;;;1.80;1.70;;;;;;;16.15;27.91;100161.84;10429992;28;20207;-91
2022/05/11 02:39:35;;;;;;;3.13;1.77;;;;;;;16.50;27.71;100160.72;10449430;28;20216;-90
2022/05/11 02:44:37;;;;;;;3.00;1.90;;;;;;;16.73;27.04;100153.09;10427605;28;20600;-90
2022/05/11 02:49:39;;;;;;;9.05;2.17;;;;;;;16.72;27.14;100157.22;10427403;28;20277;-90
2022/05/11 02:54:41;;;;;;;3.67;1.60;;;;;;;16.60;26.94;100159.81;10427353;28;20572;-87
2022/05/11 02:59:44;;;;;;;4.22;1.70;;;;;;;16.83;27.03;100148.47;10426604;28;20216;-89
2022/05/11 03:04:47;;;;;;;4.10;2.10;;;;;;;15.53;28.93;100140.50;10423186;28;20543;-89
2022/05/11 03:09:51;;;;;;;3.63;1.85;;;;;;;16.44;27.67;100136.53;10420556;28;20200;-87
2022/05/11 03:14:53;;;;;;;3.85;1.80;;;;;;;16.26;27.38;100128.94;10422926;28;20192;-87
2022/05/11 03:19:55;;;;;;;2.53;1.90;;;;;;;16.20;27.51;100124.84;10422718;28;20212;-90
2022/05/11 03:24:58;;;;;;;6.65;2.05;;;;;;;16.03;28.19;100126.63;10404700;28;20196;-89
2022/05/11 03:30:00;;;;;;;3.83;2.00;;;;;;;16.40;27.70;100127.94;10421321;28;20257;-86
2022/05/11 03:35:04;;;;;;;3.20;1.52;;;;;;;15.90;28.17;100119.75;10420830;28;20196;-88
2022/05/11 03:40:08;;;;;;;3.75;1.80;;;;;;;15.51;29.17;100116.31;10437655;28;20199;-89
2022/05/11 03:45:16;;;;;;;7.45;2.33;;;;;;;15.88;28.50;100107.06;10420870;28;20188;-90
2022/05/11 03:50:22;;;;;;;5.20;2.47;;;;;;;16.10;28.01;100110.59;10403919;28;20250;-90
2022/05/11 03:55:25;;;;;;;3.55;1.95;;;;;;;16.18;27.69;100106.41;10420558;28;20196;-89
2022/05/11 04:00:27;;;;;;;7.53;2.33;;;;;;;15.68;28.51;100110.47;10420352;28;20211;-88
2022/05/11 04:05:32;;;;;;;6.13;2.05;;;;;;;15.99;28.10;100097.13;10437472;28;20188;-84
2022/05/11 04:10:36;;;;;;;4.55;2.15;;;;;;;16.58;27.42;100081.78;10421392;28;20188;-89
2022/05/11 04:15:39;;;;;;;3.97;1.90;;;;;;;17.22;26.73;100092.53;10399204;28;20204;-89
2022/05/11 04:20:41;;;;;;;6.47;2.25;;;;;;;16.28;27.34;100097.69;10385440;28;20209;-89
2022/05/11 04:25:43;;;;;;;2.88;1.70;;;;;;;16.08;28.12;100087.22;10387825;28;20189;-90
2022/05/11 04:30:46;;;;;;;3.15;2.10;;;;;;;15.92;27.95;100085.69;10421555;28;20188;-86
2022/05/11 04:35:54;;;;;;;7.72;1.77;;;;;;;16.12;28.00;100085.97;10461779;28;20219;-92
2022/05/11 04:40:57;;;;;;;4.30;3.30;;;;;;;16.52;27.43;100089.25;10444796;28;20211;-92
2022/05/11 04:45:59;;;;;;;3.60;1.70;;;;;;;16.09;27.67;100088.84;10421807;28;20196;-87
2022/05/11 04:51:02;;;;;;;4.78;1.83;;;;;;;16.24;27.98;100082.56;10384379;28;20221;-87
2022/05/11 04:56:05;;;;;;;4.68;2.40;;;;;;;16.82;26.87;100083.56;10383636;28;20196;-86
2022/05/11 05:01:08;;;;;;;6.13;2.55;;;;;;;17.20;26.47;100067.06;10398929;28;20212;-86
2022/05/11 05:06:11;;;;;;;3.55;1.65;;;;;;;17.37;26.44;100060.25;10399727;28;20180;-88
2022/05/11 05:11:13;;;;;;;5.82;2.08;;;;;;;17.28;27.41;100062.84;10400743;28;20478;-92
2022/05/11 05:16:16;;;;;;;6.10;2.38;;;;;;;16.74;27.49;100059.84;10437214;28;20474;-88
2022/05/11 05:21:18;;;;;;;5.07;2.00;;;;;;;16.88;27.64;100063.78;10424840;28;20227;-86
2022/05/11 05:26:27;;;;;;;7.38;2.22;;;;;;;17.76;26.79;100055.97;10425878;28;20196;-90
2022/05/11 05:31:30;;;;;;;6.32;2.33;;;;;;;17.58;27.18;100070.59;10440858;28;20176;-91
2022/05/11 05:36:38;;;;;;;13.60;2.72;;;;;;;17.36;27.50;100069.31;10408408;28;20192;-88
2022/05/11 05:41:40;;;;;;;7.63;2.20;;;;;;;18.15;26.37;100067.63;10441836;28;20219;-88
2022/05/11 05:46:42;;;;;;;6.20;2.42;;;;;;;17.35;27.73;100068.50;10440596;28;20192;-85
2022/05/11 05:51:45;;;;;;;6.07;2.33;;;;;;;17.50;27.31;100057.56;10423455;28;20228;-88
2022/05/11 05:56:47;;;;;;;9.90;2.75;;;;;;;16.62;28.55;100059.59;10441240;28;20184;-88
2022/05/11 06:01:49;;;;;;;7.07;3.20;;;;;;;17.04;28.28;100055.34;10440596;28;20199;-89
2022/05/11 06:06:51;;;;;;;8.13;3.08;;;;;;;16.84;28.44;100060.13;10440380;28;20250;-89
2022/05/11 06:11:53;;;;;;;9.10;3.65;;;;;;;15.75;30.21;100063.66;10424060;28;20184;-86
2022/05/11 06:16:56;;;;;;;8.20;4.50;;;;;;;16.19;29.73;100056.31;10422484;28;20249;-87
2022/05/11 06:21:58;;;;;;;5.20;4.50;;;;;;;15.92;30.02;100056.16;10456884;28;20666;-89
2022/05/11 06:27:03;;;;;;;6.78;4.80;;;;;;;15.58;31.20;100050.28;10439900;28;20180;-88
2022/05/11 06:32:06;;;;;;;6.50;4.97;;;;;;;16.86;29.29;100040.38;10423321;28;20188;-89
2022/05/11 06:37:08;;;;;;;7.45;4.50;;;;;;;15.54;31.73;100046.63;10439198;28;20184;-89
2022/05/11 06:42:12;;;;;;;7.38;4.75;;;;;;;17.24;29.34;100036.19;10445203;28;20196;-89
2022/05/11 06:47:15;;;;;;;6.38;4.88;;;;;;;16.28;30.84;100045.13;10421542;28;20199;-88
2022/05/11 06:52:17;;;;;;;6.68;4.53;;;;;;;16.66;30.14;100043.91;10440157;28;20223;-88
2022/05/11 07:02:42;;;;;;;10.30;4.88;;;;;;;16.34;30.67;100049.19;10456359;28;20333;-88
2022/05/11 07:07:44;;;;;;;10.65;5.20;;;;;;;16.52;30.72;100043.25;10454096;28;20191;-88
2022/05/11 07:12:47;;;;;;;11.15;5.18;;;;;;;16.79;31.01;100040.50;10454180;28;20257;-87
2022/05/11 07:17:54;;;;;;;7.05;4.25;;;;;;;17.61;29.56;100029.44;10454523;28;20211;-89
2022/05/11 07:22:57;;;;;;;8.05;5.05;;;;;;;16.72;30.04;100050.81;10453800;28;20632;-89
2022/05/11 07:28:00;;;;;;;9.20;4.85;;;;;;;17.40;28.83;100035.53;10438140;28;20218;-90
2022/05/11 07:33:02;;;;;;;5.30;4.10;;;;;;;17.24;29.72;100033.31;10437515;28;20230;-91
2022/05/11 07:38:09;;;;;;;4.70;3.92;;;;;;;18.09;28.65;100037.66;10436890;28;20200;-86
2022/05/11 07:43:12;;;;;;;12.25;5.05;;;;;;;18.54;27.76;100045.91;10453789;28;20230;-89
2022/05/11 07:48:14;;;;;;;8.40;5.45;;;;;;;18.91;27.85;100035.28;10454484;28;20188;-88
2022/05/11 07:53:17;;;;;;;7.63;5.03;;;;;;;18.94;27.82;100037.28;10456532;28;20215;-92
2022/05/11 08:03:39;;;;;;;11.25;5.20;;;;;;;19.05;26.45;100034.97;10451070;28;20215;-86
2022/05/11 08:08:42;;;;;;;6.22;4.70;;;;;;;18.79;26.77;100040.47;10448076;28;20255;-88
2022/05/11 08:13:45;;;;;;;7.28;5.63;;;;;;;18.24;28.33;100040.31;10462143;28;20192;-89
2022/05/11 08:18:47;;;;;;;9.48;5.13;;;;;;;19.67;25.41;100031.03;10464072;28;20227;-91
2022/05/11 08:23:49;;;;;;;8.60;5.05;;;;;;;17.89;27.55;100042.56;10445973;28;20241;-86
2022/05/11 08:28:52;;;;;;;11.57;4.90;;;;;;;18.64;26.78;100033.31;10460993;28;20215;-87
2022/05/11 08:33:55;;;;;;;9.00;4.97;;;;;;;19.19;26.55;100020.22;10460434;28;20195;-90
2022/05/11 08:39:13;;;;;;;7.60;4.60;;;;;;;19.21;25.91;100030.03;10461265;28;20188;-90
2022/05/11 08:44:18;;;;;;;8.38;4.00;;;;;;;18.92;26.36;100020.41;10460013;28;20623;-89
2022/05/11 08:49:23;;;;;;;5.07;2.75;;;;;;;18.21;26.56;100029.66;10443181;28;20199;-88
2022/05/11 08:54:50;;;;;;;5.55;2.90;;;;;;;17.76;27.26;100030.03;10426561;28;20184;-88
2022/05/11 08:59:58;;;;;;;7.00;3.45;;;;;;;18.09;26.99;100043.41;10426553;28;20496;-91
2022/05/11 09:05:02;;;;;;;4.25;2.92;;;;;;;19.37;25.27;100017.75;10441749;28;20196;-91
2022/05/11 09:10:06;;;;;;;9.25;3.03;;;;;;;19.10;26.34;100025.78;10442716;28;20172;-84
2022/05/11 09:15:09;;;;;;;7.93;2.40;;;;;;;19.06;25.94;100016.38;10424996;28;20220;-89
2022/05/11 09:20:15;;;;;;;4.60;2.25;;;;;;;19.26;25.16;100028.72;10409265;28;20709;-87
2022/05/11 09:25:21;;;;;;;5.00;2.40;;;;;;;19.27;25.02;100013.03;10426744;28;20222;-91
2022/05/11 09:30:26;;;;;;;5.45;2.55;;;;;;;20.81;23.64;99999.06;10472675;28;20192;-85
2022/05/11 09:35:36;;;;;;;7.40;2.80;;;;;;;20.30;24.48;100003.81;10442713;28;20200;-87
2022/05/11 09:41:09;;;;;;;6.80;2.78;;;;;;;18.63;26.09;100008.63;10425604;28;20551;-86
2022/05/11 09:46:16;;;;;;;3.92;2.28;;;;;;;20.32;24.44;100005.00;10424222;28;20230;-88
2022/05/11 09:51:24;;;;;;;3.50;2.17;;;;;;;19.98;24.25;100011.28;10442039;28;20682;-86
2022/05/11 09:56:31;;;;;;;4.85;2.58;;;;;;;18.41;26.81;100013.22;10424512;28;20476;-91
2022/05/11 10:01:33;;;;;;;6.85;2.17;;;;;;;20.34;24.08;100008.25;10424884;28;20250;-88
2022/05/11 10:06:47;;;;;;;5.40;1.73;;;;;;;19.77;25.01;99995.31;10439793;28;20246;-88
2022/05/11 10:11:50;;;;;;;3.33;2.17;;;;;;;18.48;25.99;100007.28;10439441;28;20527;-89
2022/05/11 10:22:38;;;;;;;3.00;2.00;;;;;;;20.84;23.70;99975.78;10424577;28;20215;-88
2022/05/11 10:27:59;;;;;;;8.20;2.50;;;;;;;19.17;25.42;99979.41;10422587;28;20214;-87
2022/05/11 10:33:25;;;;;;;6.25;2.33;;;;;;;20.20;24.41;99983.41;10456699;28;20249;-86
2022/05/11 10:38:49;;;;;;;2.47;2.13;;;;;;;20.43;24.42;99967.88;10440614;28;20269;-85
2022/05/11 10:43:58;;;;;;;4.00;2.55;;;;;;;19.80;24.82;99970.47;10430218;28;20277;-89
2022/05/11 10:49:34;;;;;;;7.00;2.70;;;;;;;20.37;24.45;99971.81;10447332;28;20261;-87
2022/05/11 10:55:03;;;;;;;4.05;2.05;;;;;;;19.87;24.86;99958.72;10420482;28;20181;-89
2022/05/11 11:00:16;;;;;;;3.95;2.00;;;;;;;20.18;24.68;99959.91;10384677;28;20255;-87
2022/05/11 11:05:39;;;;;;;4.00;2.92;;;;;;;20.36;24.16;99955.72;10397063;28;20177;-91
2022/05/11 11:11:00;;;;;;;7.25;2.63;;;;;;;20.54;23.50;99953.13;10396363;28;20613;-86
2022/05/11 11:16:03;;;;;;;6.93;2.80;;;;;;;20.07;24.19;99949.91;10379883;28;20205;-88
2022/05/11 11:21:08;;;;;;;6.65;2.80;;;;;;;20.58;23.27;99939.34;10398607;28;20216;-87
2022/05/11 11:26:12;;;;;;;2.83;2.17;;;;;;;21.55;22.79;99932.94;10364043;28;20197;-87
2022/05/11 11:31:20;;;;;;;5.53;2.28;;;;;;;21.35;23.13;99928.69;10403255;28;20215;-91
2022/05/11 11:36:31;;;;;;;5.05;2.15;;;;;;;21.27;23.16;99920.25;10404614;28;20181;-90
2022/05/11 11:42:06;;;;;;;6.80;2.05;;;;;;;21.48;22.74;99918.69;10420094;28;20220;-90
2022/05/11 11:47:27;;;;;;;4.30;2.00;;;;;;;20.07;23.77;99923.91;10388024;28;20461;-86
2022/05/11 11:52:41;;;;;;;3.08;1.90;;;;;;;20.59;23.21;99927.31;10447738;28;20705;-91
2022/05/11 11:57:43;;;;;;;5.10;2.00;;;;;;;20.14;23.69;99915.84;10447155;28;20195;-87
2022/05/11 12:02:46;;;;;;;4.40;1.98;;;;;;;21.96;22.03;99902.13;10428025;28;20498;-88
2022/05/11 12:19:09;;;;;;;5.57;2.00;;;;;;;21.72;22.04;99895.97;10447242;28;20208;-87
2022/05/11 12:24:36;;;;;;;5.38;1.77;;;;;;;22.58;21.58;99897.28;10446063;28;20242;-90
2022/05/11 12:30:00;;;;;;;2.90;1.50;;;;;;;21.87;21.14;99902.03;10446229;28;20403;-90
2022/05/11 12:35:07;;;;;;;4.38;1.85;;;;;;;22.59;20.61;99877.78;10410639;28;20210;-90
2022/05/11 12:40:19;;;;;;;3.85;2.22;;;;;;;22.96;21.16;99897.03;10442525;28;20196;-90
2022/05/11 12:45:28;;;;;;;6.13;2.13;;;;;;;22.02;21.21;99874.16;10441834;28;20612;-87
2022/05/11 12:50:37;;;;;;;7.82;1.85;;;;;;;22.71;20.94;99856.59;10443837;28;20215;-87
2022/05/11 12:55:53;;;;;;;6.35;1.92;;;;;;;22.87;20.69;99867.16;10428941;28;20477;-91
2022/05/11 13:01:04;;;;;;;2.70;1.90;;;;;;;21.84;21.35;99868.22;10443393;28;20188;-89
2022/05/11 13:06:12;;;;;;;6.70;2.08;;;;;;;23.03;20.53;99849.44;10442216;28;20184;-89
2022/05/11 13:11:16;;;;;;;6.03;1.60;;;;;;;23.65;20.68;99838.50;10444420;28;20237;-88
2022/05/11 13:16:22;;;;;;;3.67;1.98;;;;;;;22.91;21.08;99827.94;10424478;28;20234;-87
2022/05/11 13:21:27;;;;;;;5.32;2.10;;;;;;;24.66;20.29;99823.81;10441142;28;20219;-88
2022/05/11 13:26:35;;;;;;;3.67;1.80;;;;;;;23.99;20.26;99817.00;10441332;28;20774;-86
2022/05/11 13:31:44;;;;;;;4.65;2.03;;;;;;;22.12;21.53;99832.34;10425414;28;20188;-88
2022/05/11 13:36:51;;;;;;;3.17;1.95;;;;;;;23.11;21.18;99810.13;10423933;28;20204;-85
2022/05/11 13:41:55;;;;;;;3.40;2.00;;;;;;;23.15;21.73;99810.00;10458828;28;20543;-90
2022/05/11 13:52:38;;;;;;;6.40;2.30;;;;;;;23.19;20.89;99796.13;10442315;28;20220;-89
2022/05/11 13:57:41;;;;;;;8.95;2.30;;;;;;;23.30;21.23;99790.63;10406753;28;20199;-90
2022/05/11 14:02:58;;;;;;;6.43;2.15;;;;;;;23.73;20.41;99787.47;10455467;28;20216;-86
2022/05/11 14:08:01;;;;;;;7.65;2.42;;;;;;;23.00;20.91;99781.53;10421551;28;20200;-87
2022/05/11 14:13:03;;;;;;;4.43;2.35;;;;;;;22.39;21.51;99782.41;10419922;28;20185;-88
2022/05/11 14:18:10;;;;;;;6.93;2.95;;;;;;;23.45;21.16;99777.09;10454017;28;20215;-87
2022/05/11 14:23:12;;;;;;;4.20;2.03;;;;;;;22.46;22.06;99770.53;10442645;28;20508;-87
2022/05/11 14:28:14;;;;;;;4.40;2.35;;;;;;;23.97;20.98;99769.31;10402900;28;20201;-87
2022/05/11 14:33:17;;;;;;;4.63;2.03;;;;;;;23.79;21.20;99766.47;10386806;28;20193;-88
2022/05/11 14:38:19;;;;;;;4.47;2.05;;;;;;;21.71;22.90;99763.09;10397697;28;20222;-89
2022/05/11 14:43:24;;;;;;;4.30;2.10;;;;;;;23.14;21.65;99756.09;10445295;28;20215;-87
2022/05/11 14:48:31;;;;;;;2.53;2.17;;;;;;;23.51;21.05;99751.94;10431343;28;20208;-87
2022/05/11 14:53:35;;;;;;;4.88;1.90;;;;;;;23.96;20.84;99744.44;10431405;28;20239;-86
2022/05/11 15:04:04;;;;;;;6.28;2.00;;;;;;;24.22;21.60;99745.69;10451935;28;20215;-85
2022/05/11 15:09:07;;;;;;;7.20;2.20;;;;;;;23.62;21.24;99723.19;10436169;28;20581;-85
2022/05/11 15:14:09;;;;;;;7.18;2.10;;;;;;;24.02;20.69;99725.88;10435742;28;20192;-86
2022/05/11 15:19:12;;;;;;;6.45;1.92;;;;;;;24.30;20.51;99723.69;10436312;28;20215;-86
2022/05/11 15:24:14;;;;;;;7.43;2.28;;;;;;;23.99;20.98;99728.94;10451758;28;20216;-86
2022/05/11 15:29:17;;;;;;;7.53;2.20;;;;;;;24.52;20.30;99716.84;10452077;28;20192;-86
2022/05/11 15:34:21;;;;;;;3.55;2.22;;;;;;;23.63;20.28;99727.72;10451086;28;20187;-87
2022/05/11 15:39:26;;;;;;;5.18;1.95;;;;;;;23.77;20.15;99722.53;10434142;28;20253;-87
2022/05/11 15:44:28;;;;;;;9.38;2.22;;;;;;;24.11;20.25;99710.50;10451220;28;20211;-88
2022/05/11 15:49:54;;;;;;;2.92;1.88;;;;;;;23.27;20.61;99714.00;10437467;28;20219;-86
2022/05/11 15:55:05;;;;;;;8.73;1.88;;;;;;;22.68;20.82;99719.03;10418488;28;20191;-85
2022/05/11 16:00:11;;;;;;;7.43;2.00;;;;;;;23.11;20.41;99710.56;10434272;28;20226;-86
2022/05/11 16:05:16;;;;;;;5.30;1.33;;;;;;;22.43;20.57;99712.63;10417889;28;20528;-86
2022/05/11 16:10:19;;;;;;;5.35;1.15;;;;;;;22.32;20.54;99725.50;10418260;28;20195;-84
2022/05/11 16:15:28;;;;;;;4.55;1.10;;;;;;;23.08;19.41;99699.91;10441836;28;20214;-85
2022/05/11 16:20:32;;;;;;;5.80;1.10;;;;;;;23.68;18.56;99703.78;10442333;28;20215;-85
2022/05/11 16:25:34;;;;;;;6.80;1.50;;;;;;;22.62;20.07;99712.22;10442139;28;20215;-87
2022/05/11 16:30:38;;;;;;;5.45;0.82;;;;;;;22.38;19.65;99721.97;10442108;28;20196;-85
2022/05/11 16:36:10;;;;;;;7.35;1.05;;;;;;;22.32;19.56;99731.31;10443027;28;20581;-85
2022/05/11 16:41:15;;;;;;;3.92;0.80;;;;;;;22.73;19.15;99725.50;10424027;28;20229;-87
2022/05/11 16:46:17;;;;;;;2.65;1.15;;;;;;;22.93;18.75;99717.16;10423715;28;20217;-85
2022/05/11 16:51:20;;;;;;;7.75;1.33;;;;;;;22.98;18.98;99720.22;10382924;28;20335;-88
2022/05/11 16:56:22;;;;;;;3.85;0.85;;;;;;;22.84;19.19;99729.56;10383707;28;20246;-88
2022/05/11 17:01:27;;;;;;;44.53;16.80;;;;;;;22.73;19.17;99714.72;10383021;28;20239;-89
2022/05/11 17:06:30;;;;;;;17.67;9.02;;;;;;;22.13;20.07;99712.16;10398263;28;20304;-82
2022/05/11 17:11:32;;;;;;;8.93;3.13;;;;;;;23.09;19.00;99716.03;10416297;28;20647;-85
